Mystic, Missouri
Current Conditions -  °F | °C
As of 9:55 PM on Thursday 18 Dec 2014 (Local Time) from KIRK Reporting Station
Overcast Overcast  
Wind Chill: 23°   Ceiling: 3100
Heat Index: 29°   Visibility: 8mi
Dew Point: 26°   Wind: 6mph
Humidity: 89%   Direction: 80°E
Pressure: 30.28"   Gusts: NA
Location:  40.2455°N, 92.9523°W
Report Text: KIRK 190355Z AUTO 08005KT 8SM FEW024 OVC031 M02/M03 A3028 RMK AO2 SLP268 T10171033
Loading
Personal Weather Stations






























Interactive Weather Map New forecast layout! Learn more

10-Day Weather Forecast

Advertisements
Track Severe Weather on mobile